Time;durP1;ratioP1;P1;durP2;ratioP2;P2;SDS_P1;SDS_P2;PMS_P1;PMS_P2;Temp;Humidity;BMP_temperature;BMP_pressure;BME280_temperature;BME280_humidity;BME280_pressure;Samples;Min_cycle;Max_cycle;Signal;HPM_P1;HPM_P2
2023/07/22 00:02:18;;;;;;;3.35;2.28;;;14.10;99.90;;;;;;4980481;28;20061;-96
2023/07/22 00:04:43;;;;;;;6.88;1.58;;;14.10;99.90;;;;;;4978826;28;20066;-95
2023/07/22 00:07:11;;;;;;;3.33;1.13;;;14.10;99.90;;;;;;4980789;28;20043;-91
2023/07/22 00:09:38;;;;;;;2.33;1.30;;;14.10;99.90;;;;;;4982229;28;20019;-96
2023/07/22 00:12:04;;;;;;;4.35;1.65;;;14.10;99.90;;;;;;4980767;28;20098;-96
2023/07/22 00:14:31;;;;;;;3.78;1.80;;;14.10;99.90;;;;;;4970960;28;20038;-96
2023/07/22 00:16:57;;;;;;;3.72;1.95;;;14.10;99.90;;;;;;4969402;28;20030;-96
2023/07/22 00:19:23;;;;;;;2.67;1.60;;;14.10;99.90;;;;;;4967518;28;20039;-96
2023/07/22 00:21:49;;;;;;;3.65;1.60;;;14.00;99.90;;;;;;4969235;28;20045;-95
2023/07/22 00:24:14;;;;;;;2.95;1.83;;;14.00;99.90;;;;;;4968844;28;20481;-96
2023/07/22 00:26:41;;;;;;;3.63;1.67;;;14.00;99.90;;;;;;4967151;28;20131;-96
2023/07/22 00:29:07;;;;;;;2.65;2.00;;;14.00;99.90;;;;;;4969776;28;20034;-95
2023/07/22 00:31:33;;;;;;;4.80;2.20;;;14.00;99.90;;;;;;4975985;28;20031;-94
2023/07/22 00:33:59;;;;;;;4.28;2.20;;;14.00;99.90;;;;;;4977000;28;20038;-94
2023/07/22 00:36:25;;;;;;;5.63;1.98;;;14.00;99.90;;;;;;4979142;28;20006;-94
2023/07/22 00:38:52;;;;;;;4.22;1.98;;;14.00;99.90;;;;;;4979042;28;20037;-94
2023/07/22 00:41:18;;;;;;;3.95;1.95;;;13.90;99.90;;;;;;4978901;28;20038;-93
2023/07/22 00:43:44;;;;;;;4.53;1.88;;;13.90;99.90;;;;;;4979203;28;20030;-94
2023/07/22 00:46:09;;;;;;;3.42;1.98;;;13.90;99.90;;;;;;4992671;28;20025;-95
2023/07/22 00:48:36;;;;;;;2.58;1.63;;;13.90;99.90;;;;;;4980101;28;20102;-95
2023/07/22 00:51:01;;;;;;;3.28;1.90;;;13.90;99.90;;;;;;4976455;28;20023;-94
2023/07/22 00:53:28;;;;;;;3.45;2.72;;;13.80;99.90;;;;;;4959373;28;20086;-94
2023/07/22 00:55:54;;;;;;;5.15;1.92;;;13.80;99.90;;;;;;4960101;28;20132;-93
2023/07/22 00:58:21;;;;;;;4.00;2.00;;;13.80;99.90;;;;;;4960674;28;20066;-94
2023/07/22 01:00:47;;;;;;;5.32;2.10;;;13.80;99.90;;;;;;4959074;28;20027;-94
2023/07/22 01:03:13;;;;;;;3.00;1.52;;;13.80;99.90;;;;;;4957549;28;20039;-94
2023/07/22 01:05:39;;;;;;;2.95;2.47;;;13.70;99.90;;;;;;4959058;28;20023;-92
2023/07/22 01:08:06;;;;;;;3.42;2.20;;;13.80;99.90;;;;;;4958717;28;20023;-93
2023/07/22 01:10:31;;;;;;;3.22;2.40;;;13.70;99.90;;;;;;4968091;28;20031;-92
2023/07/22 01:12:57;;;;;;;3.80;1.77;;;13.80;99.90;;;;;;4978199;28;20475;-93
2023/07/22 01:15:26;;;;;;;2.50;1.92;;;13.80;99.90;;;;;;4978306;28;20026;-93
2023/07/22 01:17:52;;;;;;;4.43;2.53;;;13.80;99.90;;;;;;4978322;28;20097;-93
2023/07/22 01:20:18;;;;;;;4.70;2.50;;;13.70;99.90;;;;;;4980594;28;20022;-91
2023/07/22 01:22:56;;;;;;;4.78;2.88;;;13.70;99.90;;;;;;4989009;28;20042;-92
2023/07/22 01:25:22;;;;;;;4.03;2.28;;;13.70;99.90;;;;;;4978506;28;20050;-92
2023/07/22 01:27:50;;;;;;;5.25;2.30;;;13.60;99.90;;;;;;4980176;28;20180;-93
2023/07/22 01:30:15;;;;;;;4.72;2.08;;;13.60;99.90;;;;;;4981095;28;20138;-92
2023/07/22 01:32:41;;;;;;;4.20;2.13;;;13.60;99.90;;;;;;4981557;28;20487;-92
2023/07/22 01:35:07;;;;;;;3.55;2.00;;;13.50;99.90;;;;;;4981419;28;20053;-93
2023/07/22 01:37:34;;;;;;;3.17;1.80;;;13.50;99.90;;;;;;4981786;28;20080;-94
2023/07/22 01:40:00;;;;;;;6.30;2.30;;;13.50;99.90;;;;;;4982607;28;20058;-94
2023/07/22 01:42:26;;;;;;;7.22;2.10;;;13.50;99.90;;;;;;4982623;28;20038;-95
2023/07/22 01:44:53;;;;;;;4.18;1.92;;;13.50;99.90;;;;;;4983898;28;20430;-94
2023/07/22 01:47:18;;;;;;;2.60;1.60;;;13.40;99.90;;;;;;4982257;28;20411;-95
2023/07/22 01:49:45;;;;;;;4.65;1.55;;;13.40;99.90;;;;;;4983150;28;20038;-92
2023/07/22 01:52:10;;;;;;;2.47;1.63;;;13.40;99.90;;;;;;4980993;28;20077;-94
2023/07/22 01:54:36;;;;;;;3.08;1.80;;;13.40;99.90;;;;;;4981158;28;20022;-93
2023/07/22 01:57:02;;;;;;;2.42;1.77;;;13.40;99.90;;;;;;4980718;28;20036;-92
2023/07/22 01:59:28;;;;;;;1.85;1.45;;;13.40;99.90;;;;;;4980553;28;20125;-93
2023/07/22 02:01:53;;;;;;;3.78;1.48;;;13.40;99.90;;;;;;4980589;28;20034;-94
2023/07/22 02:04:19;;;;;;;2.30;1.60;;;13.40;99.90;;;;;;4980319;28;20030;-94
2023/07/22 02:06:44;;;;;;;3.08;1.70;;;13.40;99.90;;;;;;4980626;28;20499;-93
2023/07/22 02:09:13;;;;;;;5.97;1.60;;;13.40;99.90;;;;;;4980352;28;20495;-92
2023/07/22 02:11:39;;;;;;;1.77;1.52;;;13.40;99.90;;;;;;4980383;28;20033;-93
2023/07/22 02:14:06;;;;;;;4.50;1.58;;;13.40;99.90;;;;;;4980725;28;20117;-93
2023/07/22 02:16:36;;;;;;;3.15;2.00;;;13.40;99.90;;;;;;4980134;28;20053;-93
2023/07/22 02:19:03;;;;;;;4.63;2.30;;;13.40;99.90;;;;;;4980140;28;20026;-93
2023/07/22 02:21:29;;;;;;;3.22;1.70;;;13.40;99.90;;;;;;4962546;28;20043;-94
2023/07/22 02:23:54;;;;;;;3.75;2.25;;;13.50;99.90;;;;;;4960929;28;20033;-94
2023/07/22 02:26:20;;;;;;;8.45;2.03;;;13.40;99.90;;;;;;4957503;29;20131;-92
2023/07/22 02:28:46;;;;;;;4.07;2.08;;;13.40;99.90;;;;;;4957352;28;20503;-94
2023/07/22 02:31:12;;;;;;;3.80;1.90;;;13.40;99.90;;;;;;4970765;28;20086;-92
2023/07/22 02:33:38;;;;;;;2.60;1.63;;;13.40;99.90;;;;;;4973172;28;20029;-94
2023/07/22 02:36:03;;;;;;;4.07;2.00;;;13.40;99.90;;;;;;4972739;28;20656;-95
2023/07/22 02:38:29;;;;;;;5.05;2.63;;;13.40;99.90;;;;;;4973426;28;20575;-94
2023/07/22 02:41:00;;;;;;;5.20;2.10;;;13.40;99.90;;;;;;4969688;28;20395;-94
2023/07/22 02:43:26;;;;;;;4.18;2.05;;;13.40;99.90;;;;;;4968229;28;20511;-94
2023/07/22 02:45:53;;;;;;;4.93;2.15;;;13.40;99.90;;;;;;4964581;28;20024;-94
2023/07/22 02:48:18;;;;;;;4.30;2.30;;;13.40;99.90;;;;;;4964560;28;20118;-96
2023/07/22 02:50:45;;;;;;;2.58;1.80;;;13.40;99.90;;;;;;4962430;28;20107;-91
2023/07/22 02:53:11;;;;;;;3.47;1.90;;;13.40;99.90;;;;;;4960999;28;20035;-93
2023/07/22 02:55:36;;;;;;;6.28;2.20;;;13.40;99.90;;;;;;4960732;28;20031;-94
2023/07/22 02:58:02;;;;;;;4.40;2.00;;;13.30;99.90;;;;;;4961242;28;20027;-93
2023/07/22 03:00:28;;;;;;;4.38;2.10;;;13.40;99.90;;;;;;4960753;28;20468;-94
2023/07/22 03:03:01;;;;;;;3.88;1.88;;;13.40;99.90;;;;;;4961722;28;20555;-94
2023/07/22 03:05:28;;;;;;;4.53;1.98;;;13.40;99.90;;;;;;4963390;28;20034;-92
2023/07/22 03:07:54;;;;;;;3.95;1.75;;;13.40;99.90;;;;;;4961227;28;20066;-93
2023/07/22 03:10:20;;;;;;;3.45;1.90;;;13.30;99.90;;;;;;4962326;28;20066;-93
2023/07/22 03:12:45;;;;;;;2.85;1.70;;;13.40;99.90;;;;;;4963299;28;20472;-93
2023/07/22 03:15:12;;;;;;;4.03;1.63;;;13.40;99.90;;;;;;4969122;28;20050;-94
2023/07/22 03:17:41;;;;;;;2.58;1.50;;;13.40;99.90;;;;;;4969022;28;20041;-94
2023/07/22 03:20:14;;;;;;;3.10;1.90;;;13.30;99.90;;;;;;4966065;28;20019;-94
2023/07/22 03:22:41;;;;;;;4.90;1.92;;;13.30;99.90;;;;;;4965903;28;20050;-93
2023/07/22 03:25:11;;;;;;;3.90;1.75;;;13.30;99.90;;;;;;4963131;28;20027;-92
2023/07/22 03:27:38;;;;;;;3.15;1.83;;;13.30;99.90;;;;;;4964252;28;20047;-94
2023/07/22 03:30:07;;;;;;;2.83;1.52;;;13.20;99.90;;;;;;4979241;28;20035;-94
2023/07/22 03:32:33;;;;;;;2.28;1.30;;;13.20;99.90;;;;;;4961335;28;20029;-93
2023/07/22 03:34:59;;;;;;;1.40;1.27;;;13.20;99.90;;;;;;4961761;28;20030;-94
2023/07/22 03:37:25;;;;;;;1.75;1.25;;;13.20;99.90;;;;;;4965181;28;20030;-93
2023/07/22 03:39:50;;;;;;;2.63;1.88;;;13.20;99.90;;;;;;4971957;28;20033;-94
2023/07/22 03:42:16;;;;;;;1.88;1.40;;;13.10;99.90;;;;;;4970127;28;20039;-94
2023/07/22 03:44:42;;;;;;;3.13;1.20;;;13.10;99.90;;;;;;4986006;28;20038;-92
2023/07/22 03:47:07;;;;;;;2.03;1.50;;;13.10;99.90;;;;;;4966793;28;20033;-94
2023/07/22 03:49:33;;;;;;;4.97;1.85;;;13.10;99.90;;;;;;4961173;28;20081;-92
2023/07/22 03:51:59;;;;;;;2.13;1.63;;;13.10;99.90;;;;;;4959948;28;20034;-93
2023/07/22 03:54:24;;;;;;;4.63;2.40;;;13.10;99.90;;;;;;4960002;28;20081;-95
2023/07/22 03:56:50;;;;;;;2.58;2.22;;;13.10;99.90;;;;;;4961588;28;20027;-94
2023/07/22 03:59:15;;;;;;;6.97;3.47;;;13.10;99.90;;;;;;4962338;28;20023;-94
2023/07/22 04:01:41;;;;;;;5.88;2.78;;;13.10;99.90;;;;;;4976163;28;20038;-93
2023/07/22 04:04:07;;;;;;;9.13;2.90;;;13.10;99.90;;;;;;4959169;28;20027;-92
2023/07/22 04:06:32;;;;;;;6.80;2.55;;;13.10;99.90;;;;;;4958884;28;20472;-92
2023/07/22 04:09:00;;;;;;;9.70;3.13;;;13.10;99.90;;;;;;4958554;28;20033;-94
2023/07/22 04:11:26;;;;;;;6.68;3.15;;;13.10;99.90;;;;;;4958601;28;20035;-92
2023/07/22 04:13:52;;;;;;;7.97;3.00;;;13.10;99.90;;;;;;4958944;28;20392;-92
2023/07/22 04:16:18;;;;;;;6.10;2.63;;;13.10;99.90;;;;;;4958379;28;20118;-92
2023/07/22 04:18:43;;;;;;;7.47;3.38;;;13.20;99.90;;;;;;4974517;28;20035;-93
2023/07/22 04:21:09;;;;;;;11.65;3.63;;;13.10;99.90;;;;;;4958283;28;20038;-92
2023/07/22 04:23:35;;;;;;;11.32;3.30;;;13.10;99.90;;;;;;4958449;28;20037;-91
2023/07/22 04:26:04;;;;;;;6.97;3.35;;;13.10;99.90;;;;;;4958229;28;20046;-93
2023/07/22 04:28:30;;;;;;;5.63;3.63;;;13.10;99.90;;;;;;4954971;28;20038;-91
2023/07/22 04:30:58;;;;;;;10.38;4.30;;;13.10;99.90;;;;;;4958255;28;20388;-92
2023/07/22 04:33:24;;;;;;;6.90;3.35;;;13.00;99.90;;;;;;4961040;28;20026;-92
2023/07/22 04:35:52;;;;;;;6.50;3.97;;;13.00;99.90;;;;;;4960138;28;20121;-92
2023/07/22 04:38:18;;;;;;;9.13;3.40;;;13.00;99.90;;;;;;4958334;28;20022;-93
2023/07/22 04:40:44;;;;;;;7.25;3.53;;;13.00;99.90;;;;;;4958200;28;20395;-92
2023/07/22 04:43:10;;;;;;;7.35;3.22;;;13.00;99.90;;;;;;4958586;28;20038;-93
2023/07/22 04:45:35;;;;;;;6.80;3.80;;;13.00;99.90;;;;;;4958396;28;20035;-90
2023/07/22 04:48:02;;;;;;;6.90;4.18;;;13.00;99.90;;;;;;4965433;28;20448;-93
2023/07/22 04:50:28;;;;;;;8.63;4.38;;;13.00;99.90;;;;;;4961555;28;20023;-92
2023/07/22 04:52:54;;;;;;;6.70;3.55;;;13.00;99.90;;;;;;4958128;28;20504;-92
2023/07/22 04:55:20;;;;;;;5.90;3.38;;;13.00;99.90;;;;;;4958297;28;20034;-92
2023/07/22 04:57:46;;;;;;;6.38;3.80;;;13.00;99.90;;;;;;4957857;28;20392;-91
2023/07/22 05:00:14;;;;;;;5.43;3.50;;;13.00;99.90;;;;;;4957944;28;20473;-93
2023/07/22 05:02:43;;;;;;;5.18;3.00;;;13.00;99.90;;;;;;4958371;28;20054;-92
2023/07/22 05:05:09;;;;;;;5.05;2.30;;;13.00;99.90;;;;;;4957838;28;20030;-92
2023/07/22 05:07:35;;;;;;;4.70;2.72;;;13.00;99.90;;;;;;4957349;28;20056;-92
2023/07/22 05:10:01;;;;;;;4.40;2.70;;;13.00;99.90;;;;;;4958013;28;20049;-91
2023/07/22 05:12:26;;;;;;;4.18;2.72;;;12.90;99.90;;;;;;4957680;28;20026;-90
2023/07/22 05:14:52;;;;;;;4.20;2.70;;;12.90;99.90;;;;;;4960301;28;20077;-91
2023/07/22 05:17:18;;;;;;;5.68;3.08;;;12.90;99.90;;;;;;4957505;28;20034;-90
2023/07/22 05:19:43;;;;;;;6.22;3.08;;;12.90;99.90;;;;;;4957734;28;20655;-93
2023/07/22 05:22:09;;;;;;;5.10;3.17;;;13.00;99.90;;;;;;4957177;28;20039;-91
2023/07/22 05:24:34;;;;;;;6.25;3.05;;;13.00;99.90;;;;;;4957480;28;20129;-91
2023/07/22 05:27:00;;;;;;;5.78;3.10;;;13.00;99.90;;;;;;4957541;28;20138;-91
2023/07/22 05:29:26;;;;;;;4.78;2.92;;;12.90;99.90;;;;;;4957482;28;20045;-90
2023/07/22 05:31:51;;;;;;;5.90;3.05;;;12.90;99.90;;;;;;4957647;28;20027;-92
2023/07/22 05:34:17;;;;;;;5.53;2.95;;;12.90;99.90;;;;;;4957677;28;20065;-92
2023/07/22 05:36:43;;;;;;;4.13;2.47;;;12.90;99.90;;;;;;4960967;28;20094;-91
2023/07/22 05:39:08;;;;;;;8.32;2.88;;;12.90;99.90;;;;;;4968452;28;20058;-90
2023/07/22 05:41:34;;;;;;;7.78;3.33;;;12.90;99.90;;;;;;4967068;28;20042;-90
2023/07/22 05:44:00;;;;;;;3.70;2.40;;;12.90;99.90;;;;;;4965343;28;20050;-93
2023/07/22 05:46:26;;;;;;;5.57;2.78;;;12.90;99.90;;;;;;4964604;28;20023;-91
2023/07/22 05:48:51;;;;;;;7.18;2.40;;;12.90;99.90;;;;;;4962162;28;20027;-92
2023/07/22 05:51:18;;;;;;;5.93;2.80;;;13.00;99.90;;;;;;4959223;28;20035;-88
2023/07/22 05:53:44;;;;;;;7.32;2.83;;;13.00;99.90;;;;;;4958680;28;20135;-93
2023/07/22 05:56:10;;;;;;;4.32;2.53;;;13.00;99.90;;;;;;4958233;28;20544;-91
2023/07/22 05:58:36;;;;;;;4.90;2.70;;;13.00;99.90;;;;;;4956872;28;20027;-92
2023/07/22 06:01:01;;;;;;;4.63;2.83;;;13.00;99.90;;;;;;4936576;29;20039;-93
2023/07/22 06:03:27;;;;;;;5.97;2.83;;;13.00;99.90;;;;;;4929686;29;20488;-90
2023/07/22 06:05:53;;;;;;;5.30;3.00;;;13.00;99.90;;;;;;4937826;29;20015;-92
2023/07/22 06:08:19;;;;;;;4.60;2.97;;;13.00;99.90;;;;;;4937211;29;20027;-92
2023/07/22 06:10:45;;;;;;;6.05;2.92;;;13.00;99.90;;;;;;4936042;29;20059;-93
2023/07/22 06:13:10;;;;;;;4.45;2.95;;;13.00;99.90;;;;;;4937635;29;20042;-90
2023/07/22 06:15:36;;;;;;;6.10;2.88;;;13.00;99.90;;;;;;4958350;29;20401;-91
2023/07/22 06:18:02;;;;;;;4.32;2.67;;;13.00;99.90;;;;;;4941426;29;20392;-92
2023/07/22 06:20:29;;;;;;;8.02;3.28;;;13.10;99.90;;;;;;4940239;29;20381;-92
2023/07/22 06:22:54;;;;;;;5.88;3.28;;;13.10;99.90;;;;;;4941255;29;20449;-92
2023/07/22 06:25:20;;;;;;;8.80;4.10;;;13.10;99.90;;;;;;4960193;28;20023;-91
2023/07/22 06:27:46;;;;;;;8.98;3.88;;;13.10;99.90;;;;;;4961503;28;20034;-90
2023/07/22 06:30:12;;;;;;;7.78;4.13;;;13.20;99.90;;;;;;4968033;28;20074;-91
2023/07/22 06:32:39;;;;;;;9.25;3.88;;;13.20;99.90;;;;;;4962847;28;20037;-91
2023/07/22 06:35:05;;;;;;;5.65;3.78;;;13.20;99.90;;;;;;4961196;28;20037;-92
2023/07/22 06:37:31;;;;;;;8.85;4.50;;;13.30;99.90;;;;;;4961850;28;20030;-91
2023/07/22 06:39:57;;;;;;;11.60;4.07;;;13.30;99.90;;;;;;4962175;28;20102;-91
2023/07/22 06:42:22;;;;;;;7.43;4.22;;;13.30;99.90;;;;;;4958787;28;20504;-93
2023/07/22 06:44:49;;;;;;;11.82;4.13;;;13.30;99.90;;;;;;4953684;29;20034;-91
2023/07/22 06:47:15;;;;;;;5.85;3.85;;;13.40;99.90;;;;;;4940927;29;20045;-93
2023/07/22 06:49:41;;;;;;;7.40;4.25;;;13.30;99.90;;;;;;4940589;29;20118;-92
2023/07/22 06:52:07;;;;;;;8.50;4.65;;;13.40;99.90;;;;;;4942272;29;20027;-92
2023/07/22 06:54:34;;;;;;;8.27;4.25;;;13.40;99.90;;;;;;4940920;29;20019;-91
2023/07/22 06:57:00;;;;;;;10.40;4.80;;;13.40;99.90;;;;;;4941264;28;20623;-92
2023/07/22 06:59:26;;;;;;;8.30;4.45;;;13.40;99.90;;;;;;4960392;28;20031;-91
2023/07/22 07:01:52;;;;;;;7.35;4.60;;;13.40;99.90;;;;;;4959919;28;20034;-91
2023/07/22 07:04:18;;;;;;;9.00;4.80;;;13.40;99.90;;;;;;4957435;28;20034;-93
2023/07/22 07:06:43;;;;;;;9.68;4.32;;;13.40;99.90;;;;;;4957873;28;20029;-93
2023/07/22 07:09:09;;;;;;;6.70;4.30;;;13.40;99.90;;;;;;4961771;28;20062;-92
2023/07/22 07:11:35;;;;;;;8.02;4.85;;;13.40;99.90;;;;;;4959941;28;20094;-92
2023/07/22 07:14:00;;;;;;;7.03;4.28;;;13.40;99.90;;;;;;4957257;28;20023;-92
2023/07/22 07:16:28;;;;;;;8.95;4.35;;;13.40;99.90;;;;;;4958971;28;20467;-92
2023/07/22 07:18:55;;;;;;;6.90;4.15;;;13.50;99.90;;;;;;4976217;28;20035;-93
2023/07/22 07:21:21;;;;;;;6.70;3.95;;;13.50;99.90;;;;;;4958932;28;20046;-92
2023/07/22 07:23:48;;;;;;;5.97;3.72;;;13.50;99.90;;;;;;4953663;28;20027;-92
2023/07/22 07:26:13;;;;;;;6.90;4.15;;;13.50;99.90;;;;;;4956339;28;20508;-91
2023/07/22 07:28:39;;;;;;;6.60;3.25;;;13.50;99.90;;;;;;4953861;28;20039;-92
2023/07/22 07:31:05;;;;;;;5.10;3.30;;;13.50;99.90;;;;;;4958797;28;20058;-92
2023/07/22 07:33:31;;;;;;;5.75;3.28;;;13.50;99.90;;;;;;4967524;28;20393;-91
2023/07/22 07:35:56;;;;;;;4.60;2.78;;;13.60;99.90;;;;;;4957847;28;20518;-91
2023/07/22 07:38:22;;;;;;;4.60;2.25;;;13.50;99.90;;;;;;4952222;28;20030;-91
2023/07/22 07:40:59;;;;;;;4.90;2.60;;;13.50;99.90;;;;;;4955646;28;20738;-90
2023/07/22 07:43:26;;;;;;;2.88;2.13;;;13.50;99.90;;;;;;4959339;28;20412;-91
2023/07/22 07:46:22;;;;;;;4.13;2.38;;;13.50;99.90;;;;;;4953736;28;20477;-92
2023/07/22 07:48:49;;;;;;;3.25;2.25;;;13.50;99.90;;;;;;4948842;29;20099;-90
2023/07/22 07:51:16;;;;;;;3.22;2.20;;;13.40;99.90;;;;;;4940121;29;20161;-90
2023/07/22 07:53:43;;;;;;;3.33;2.40;;;13.50;99.90;;;;;;4964997;28;20046;-91
2023/07/22 07:56:10;;;;;;;3.58;2.50;;;13.50;99.90;;;;;;4956149;29;20500;-92
2023/07/22 07:58:36;;;;;;;2.85;1.83;;;13.50;99.90;;;;;;4943527;28;20026;-91
2023/07/22 08:01:02;;;;;;;3.92;2.10;;;13.40;99.90;;;;;;4957567;28;20027;-92
2023/07/22 08:03:27;;;;;;;2.28;1.75;;;13.40;99.90;;;;;;4958253;28;20038;-91
2023/07/22 08:05:53;;;;;;;3.10;2.00;;;13.50;99.90;;;;;;4970077;28;20038;-92
2023/07/22 08:08:20;;;;;;;3.13;1.83;;;13.40;99.90;;;;;;4958227;28;20065;-91
2023/07/22 08:10:45;;;;;;;3.63;1.73;;;13.50;99.90;;;;;;4958729;28;20046;-90
2023/07/22 08:13:11;;;;;;;2.80;1.80;;;13.50;99.90;;;;;;4967355;28;20019;-92
2023/07/22 08:15:37;;;;;;;4.28;1.90;;;13.50;99.90;;;;;;4960550;28;20019;-91
2023/07/22 08:18:03;;;;;;;2.63;1.58;;;13.50;99.90;;;;;;4959518;28;20443;-91
2023/07/22 08:20:30;;;;;;;2.47;1.75;;;13.50;99.90;;;;;;4959804;28;20023;-92
2023/07/22 08:22:56;;;;;;;2.30;1.60;;;13.60;99.90;;;;;;4958572;28;20038;-94
2023/07/22 08:25:22;;;;;;;4.07;1.65;;;13.60;99.90;;;;;;4956250;28;20118;-93
2023/07/22 08:27:47;;;;;;;3.72;1.70;;;13.60;99.90;;;;;;4957377;28;20677;-91
2023/07/22 08:30:13;;;;;;;3.55;1.73;;;13.60;99.90;;;;;;4955315;28;20503;-93
2023/07/22 08:32:38;;;;;;;3.13;1.67;;;13.60;99.90;;;;;;4969973;28;20162;-92
2023/07/22 08:35:05;;;;;;;2.60;1.80;;;13.70;99.90;;;;;;4957708;28;20488;-92
2023/07/22 08:37:32;;;;;;;3.80;1.58;;;13.70;99.90;;;;;;4954374;29;20039;-92
2023/07/22 08:39:57;;;;;;;2.28;1.65;;;13.80;99.90;;;;;;4984886;28;20027;-93
2023/07/22 08:42:25;;;;;;;2.35;1.60;;;13.80;99.90;;;;;;4976366;28;20042;-91
2023/07/22 08:44:56;;;;;;;1.95;1.30;;;13.90;99.90;;;;;;4971688;28;20023;-91
2023/07/22 08:47:24;;;;;;;3.28;1.60;;;14.00;99.90;;;;;;4969704;28;20113;-92
2023/07/22 08:49:53;;;;;;;2.72;1.55;;;14.00;99.90;;;;;;4968517;28;20034;-91
2023/07/22 08:52:20;;;;;;;2.17;1.42;;;14.00;99.90;;;;;;4970455;28;20034;-91
2023/07/22 08:54:46;;;;;;;1.75;1.02;;;14.10;99.90;;;;;;4966478;28;20022;-93
2023/07/22 08:57:12;;;;;;;1.60;1.38;;;14.10;99.90;;;;;;4969750;28;20034;-94
2023/07/22 08:59:38;;;;;;;2.17;1.55;;;14.10;99.90;;;;;;4965108;28;20019;-93
2023/07/22 09:02:05;;;;;;;2.40;1.63;;;14.10;99.90;;;;;;4967128;28;20038;-94
2023/07/22 09:04:31;;;;;;;3.28;1.75;;;14.10;99.90;;;;;;4961286;28;20030;-93
2023/07/22 09:06:57;;;;;;;6.20;2.00;;;14.10;99.90;;;;;;4961038;28;20039;-93
2023/07/22 09:09:25;;;;;;;5.65;2.08;;;14.10;99.90;;;;;;4959895;28;20038;-94
2023/07/22 09:11:51;;;;;;;3.75;2.05;;;14.10;99.90;;;;;;4959660;28;20027;-92
2023/07/22 09:14:19;;;;;;;4.63;2.67;;;14.10;99.90;;;;;;4957503;28;20033;-91
2023/07/22 09:16:45;;;;;;;3.47;2.40;;;14.10;99.90;;;;;;4958060;28;20051;-95
2023/07/22 09:19:11;;;;;;;4.03;2.17;;;14.10;99.90;;;;;;4957613;28;20523;-94
2023/07/22 09:21:37;;;;;;;2.53;1.80;;;14.10;99.90;;;;;;4970460;28;20051;-93
2023/07/22 09:24:25;;;;;;;3.85;1.95;;;14.10;99.90;;;;;;4958205;28;20098;-91
2023/07/22 09:26:51;;;;;;;2.88;2.17;;;14.10;99.90;;;;;;4957602;28;20046;-94
2023/07/22 09:29:18;;;;;;;2.97;1.92;;;14.20;99.90;;;;;;4958443;28;20035;-93
2023/07/22 09:31:52;;;;;;;2.80;1.85;;;14.20;99.90;;;;;;4959020;28;20063;-94
2023/07/22 09:34:18;;;;;;;3.45;1.50;;;14.20;99.90;;;;;;4958695;28;20025;-93
2023/07/22 09:36:54;;;;;;;2.33;1.70;;;14.30;99.90;;;;;;4959021;28;20027;-93
2023/07/22 09:39:21;;;;;;;4.68;1.63;;;14.30;99.90;;;;;;4958138;28;20018;-92
2023/07/22 09:41:47;;;;;;;3.10;1.80;;;14.30;99.90;;;;;;4957254;28;20038;-91
2023/07/22 09:44:13;;;;;;;2.75;1.60;;;14.30;99.90;;;;;;4958687;28;20047;-92
2023/07/22 09:46:39;;;;;;;3.47;1.70;;;14.30;99.90;;;;;;4957935;28;20778;-92
2023/07/22 09:49:07;;;;;;;1.90;1.50;;;14.30;99.90;;;;;;4960146;28;20058;-92
2023/07/22 09:51:38;;;;;;;2.40;1.88;;;14.20;99.90;;;;;;4962147;28;20043;-93
2023/07/22 09:54:05;;;;;;;3.85;1.67;;;14.30;99.90;;;;;;4980064;28;20492;-91
2023/07/22 09:56:32;;;;;;;3.92;1.77;;;14.30;99.90;;;;;;4987987;28;20046;-94
2023/07/22 09:59:05;;;;;;;2.65;1.60;;;14.40;99.90;;;;;;4967807;28;20034;-93
2023/07/22 10:01:32;;;;;;;2.70;1.83;;;14.40;99.90;;;;;;4962658;28;20034;-91
2023/07/22 10:03:59;;;;;;;2.35;1.70;;;14.50;99.90;;;;;;4960975;28;20031;-91
2023/07/22 10:06:27;;;;;;;4.38;1.80;;;14.50;99.90;;;;;;4959381;28;20038;-90
2023/07/22 10:08:56;;;;;;;2.17;1.50;;;14.60;99.90;;;;;;4958846;28;20031;-91
2023/07/22 10:11:25;;;;;;;3.35;1.85;;;14.70;99.90;;;;;;4957978;28;20408;-91
2023/07/22 10:13:52;;;;;;;3.00;1.80;;;14.80;99.90;;;;;;4955482;28;20034;-92
2023/07/22 10:16:18;;;;;;;3.13;1.90;;;14.90;99.90;;;;;;4958805;28;20025;-90
2023/07/22 10:18:46;;;;;;;2.05;1.73;;;15.00;99.90;;;;;;4959538;28;20031;-91
2023/07/22 10:21:12;;;;;;;2.25;1.60;;;15.10;99.90;;;;;;4959930;28;20019;-92
2023/07/22 10:23:38;;;;;;;2.22;1.63;;;15.10;99.90;;;;;;4976258;28;20045;-92
2023/07/22 10:26:05;;;;;;;3.08;1.67;;;15.20;99.90;;;;;;4959981;28;20043;-92
2023/07/22 10:28:32;;;;;;;3.75;1.90;;;15.20;99.90;;;;;;4960602;28;20058;-92
2023/07/22 10:30:58;;;;;;;3.00;2.00;;;15.30;99.90;;;;;;4958273;28;20031;-92
2023/07/22 10:33:25;;;;;;;3.30;2.20;;;15.30;99.90;;;;;;4961543;28;20384;-92
2023/07/22 10:36:08;;;;;;;2.85;1.92;;;15.40;99.90;;;;;;4960406;28;20078;-91
2023/07/22 10:38:35;;;;;;;3.40;2.28;;;15.40;99.90;;;;;;4961263;28;20026;-93
2023/07/22 10:41:11;;;;;;;2.80;2.13;;;15.40;99.90;;;;;;4962139;28;20023;-93
2023/07/22 10:43:36;;;;;;;4.75;2.50;;;15.50;99.90;;;;;;4966850;28;20082;-91
2023/07/22 10:46:12;;;;;;;4.28;2.80;;;15.60;99.90;;;;;;4978619;28;20030;-93
2023/07/22 10:48:42;;;;;;;3.60;2.40;;;15.60;99.90;;;;;;4960839;28;20035;-92
2023/07/22 10:51:14;;;;;;;4.70;3.33;;;15.60;99.90;;;;;;4961624;28;20027;-92
2023/07/22 10:53:50;;;;;;;4.32;2.97;;;15.50;99.90;;;;;;4962177;28;20031;-91
2023/07/22 10:56:20;;;;;;;6.18;2.83;;;15.50;99.90;;;;;;4963519;28;20161;-92
2023/07/22 10:58:46;;;;;;;4.93;2.58;;;15.50;99.90;;;;;;4961019;28;20480;-93
2023/07/22 11:01:30;;;;;;;5.15;2.53;;;15.50;99.90;;;;;;4960378;28;20039;-93
2023/07/22 11:04:31;;;;;;;3.53;2.22;;;15.40;99.90;;;;;;4961446;28;20078;-94
2023/07/22 11:07:04;;;;;;;3.78;2.40;;;15.40;99.90;;;;;;4941515;28;20122;-92
2023/07/22 11:09:30;;;;;;;4.70;2.40;;;15.40;99.90;;;;;;4958697;28;20041;-94
2023/07/22 11:12:05;;;;;;;5.70;2.58;;;15.40;99.90;;;;;;4975935;28;20118;-94
2023/07/22 11:14:37;;;;;;;4.10;2.50;;;15.40;99.90;;;;;;4958738;28;20046;-92
2023/07/22 11:17:04;;;;;;;4.80;2.38;;;15.50;99.90;;;;;;4957649;28;20037;-93
2023/07/22 11:19:30;;;;;;;3.83;2.55;;;15.50;99.90;;;;;;4957054;28;20081;-93
2023/07/22 11:21:56;;;;;;;4.00;2.58;;;15.60;99.90;;;;;;4958373;28;20031;-92
2023/07/22 11:24:24;;;;;;;5.75;2.67;;;15.60;99.90;;;;;;4957981;28;20050;-92
2023/07/22 11:26:51;;;;;;;4.65;2.28;;;15.80;99.90;;;;;;4963131;28;20046;-94
2023/07/22 11:29:16;;;;;;;5.20;2.58;;;15.70;99.90;;;;;;4967185;28;20059;-94
2023/07/22 11:31:45;;;;;;;4.07;2.30;;;15.80;99.90;;;;;;4961370;28;20023;-94
2023/07/22 11:34:16;;;;;;;3.42;2.08;;;15.90;99.90;;;;;;4960061;28;20030;-91
2023/07/22 11:36:42;;;;;;;;;;;16.00;99.90;;;;;;4960019;28;20238;-91
2023/07/22 11:39:10;;;;;;;3.45;2.03;;;16.00;99.90;;;;;;4978927;28;19906;-92
2023/07/22 11:41:36;;;;;;;2.85;1.67;;;16.10;99.90;;;;;;4960389;28;20114;-90
2023/07/22 11:44:08;;;;;;;4.22;2.17;;;16.10;99.90;;;;;;4959438;28;20489;-89
2023/07/22 11:46:35;;;;;;;3.67;1.98;;;16.10;99.90;;;;;;4959196;28;20122;-90
2023/07/22 11:49:01;;;;;;;4.95;2.13;;;16.10;99.90;;;;;;4959437;28;20031;-91
2023/07/22 11:51:27;;;;;;;2.83;1.70;;;16.10;99.90;;;;;;4976616;28;20031;-89
2023/07/22 11:53:54;;;;;;;3.60;1.35;;;16.10;99.90;;;;;;4959593;28;20450;-90
2023/07/22 11:56:26;;;;;;;3.35;2.00;;;16.10;99.90;;;;;;4959135;28;20027;-91
2023/07/22 11:58:53;;;;;;;3.45;2.17;;;16.10;99.90;;;;;;4976381;28;20031;-90
2023/07/22 12:01:20;;;;;;;3.65;2.15;;;16.20;99.90;;;;;;4975949;28;20102;-91
2023/07/22 12:03:46;;;;;;;2.90;1.95;;;16.20;99.90;;;;;;4976183;28;20070;-90
2023/07/22 12:06:12;;;;;;;2.50;2.00;;;16.30;99.90;;;;;;4959283;28;20034;-90
2023/07/22 12:08:45;;;;;;;3.25;2.60;;;16.20;99.90;;;;;;4976124;28;20062;-91
2023/07/22 12:11:25;;;;;;;5.25;2.13;;;16.20;99.90;;;;;;4958343;28;20057;-88
2023/07/22 12:14:13;;;;;;;2.92;1.85;;;16.10;99.90;;;;;;4976226;28;20112;-90
2023/07/22 12:16:42;;;;;;;4.82;2.45;;;16.10;99.90;;;;;;4959429;28;20472;-86
2023/07/22 12:19:09;;;;;;;3.00;2.22;;;16.00;99.90;;;;;;4958632;28;20117;-86
2023/07/22 12:21:35;;;;;;;4.30;1.92;;;16.00;99.90;;;;;;4974708;28;20098;-87
2023/07/22 12:24:02;;;;;;;3.90;2.30;;;15.90;99.90;;;;;;4974869;28;20027;-85
2023/07/22 12:26:28;;;;;;;3.58;2.10;;;15.80;99.90;;;;;;4975177;28;20151;-87
2023/07/22 12:28:54;;;;;;;4.15;2.30;;;15.80;99.90;;;;;;4976126;28;20055;-91
2023/07/22 12:31:20;;;;;;;3.70;2.13;;;15.80;99.90;;;;;;4958725;28;20085;-91
2023/07/22 12:33:45;;;;;;;3.75;2.22;;;15.80;99.90;;;;;;4976232;28;20027;-89
2023/07/22 12:36:11;;;;;;;3.78;2.15;;;15.80;99.90;;;;;;4958696;28;20035;-91
2023/07/22 12:38:37;;;;;;;4.78;2.25;;;15.80;99.90;;;;;;4958546;28;20027;-91
2023/07/22 12:41:03;;;;;;;3.17;2.20;;;15.80;99.90;;;;;;4958899;28;20506;-91
2023/07/22 12:43:29;;;;;;;2.60;2.05;;;15.70;99.90;;;;;;4976406;28;20082;-90
2023/07/22 12:45:54;;;;;;;3.03;1.88;;;15.70;99.90;;;;;;4964023;28;20026;-89
2023/07/22 12:48:20;;;;;;;3.38;2.20;;;15.70;99.90;;;;;;4978857;28;20440;-90